createdAt,value
2019-02-17T00:03:42.086Z,18.87
2019-02-17T00:06:10.707Z,19.43
2019-02-17T00:08:39.302Z,19.33
2019-02-17T00:11:07.478Z,20.03
2019-02-17T00:13:36.012Z,20.27
2019-02-17T00:16:04.648Z,20.17
2019-02-17T00:18:32.892Z,19.73
2019-02-17T00:21:01.101Z,20.50
2019-02-17T00:23:29.094Z,20.50
2019-02-17T00:25:57.317Z,21.77
2019-02-17T00:28:25.972Z,20.87
2019-02-17T00:31:15.108Z,20.67
2019-02-17T00:33:43.480Z,28.03
2019-02-17T00:36:11.404Z,22.43
2019-02-17T00:38:40.035Z,21.17
2019-02-17T00:41:08.318Z,18.73
2019-02-17T00:43:36.174Z,20.00
2019-02-17T00:46:04.510Z,19.60
2019-02-17T00:48:32.879Z,18.87
2019-02-17T00:51:01.369Z,18.80
2019-02-17T00:53:29.341Z,18.03
2019-02-17T00:55:56.874Z,19.33
2019-02-17T00:58:24.769Z,18.70
2019-02-17T01:00:52.957Z,18.37
2019-02-17T01:03:21.246Z,18.77
2019-02-17T01:05:49.827Z,18.43
2019-02-17T01:08:18.117Z,19.67
2019-02-17T01:10:46.389Z,20.13
2019-02-17T01:13:14.186Z,17.60
2019-02-17T01:15:42.972Z,19.63
2019-02-17T01:18:10.851Z,19.30
2019-02-17T01:20:38.821Z,19.33
2019-02-17T01:23:07.088Z,18.90
2019-02-17T01:25:35.007Z,19.60
2019-02-17T01:28:03.655Z,19.43
2019-02-17T01:30:32.047Z,18.83
2019-02-17T01:33:00.645Z,18.77
2019-02-17T01:35:28.790Z,18.37
2019-02-17T01:37:58.343Z,17.27
2019-02-17T01:40:27.259Z,18.87
2019-02-17T01:42:55.199Z,19.50
2019-02-17T01:45:23.887Z,19.13
2019-02-17T01:47:52.067Z,17.90
2019-02-17T01:50:20.742Z,19.93
2019-02-17T01:52:49.044Z,19.60
2019-02-17T01:55:17.228Z,19.27
2019-02-17T01:57:45.821Z,18.47
2019-02-17T02:00:13.929Z,18.90
2019-02-17T02:02:42.308Z,18.80
2019-02-17T02:05:10.576Z,17.40
2019-02-17T02:07:39.048Z,16.07
2019-02-17T02:10:07.544Z,17.87
2019-02-17T02:12:36.111Z,16.83
2019-02-17T02:15:44.835Z,17.77
2019-02-17T02:18:13.098Z,18.10
2019-02-17T02:20:41.374Z,17.20
2019-02-17T02:23:09.553Z,16.80
2019-02-17T02:25:37.737Z,17.33
2019-02-17T02:28:05.912Z,17.63
2019-02-17T02:30:33.824Z,17.70
2019-02-17T02:33:02.478Z,18.73
2019-02-17T02:35:31.124Z,18.10
2019-02-17T02:37:59.460Z,19.23
2019-02-17T02:40:27.429Z,18.30
2019-02-17T02:42:56.100Z,18.63
2019-02-17T02:45:24.791Z,18.13
2019-02-17T02:47:52.981Z,18.63
2019-02-17T02:50:21.373Z,23.05
2019-02-17T02:52:49.918Z,18.93
2019-02-17T02:55:18.583Z,18.07
2019-02-17T02:57:47.082Z,18.37
2019-02-17T03:00:15.309Z,18.23
2019-02-17T03:02:43.494Z,18.40
2019-02-17T03:05:11.895Z,19.63
2019-02-17T03:07:40.183Z,19.77
2019-02-17T03:10:08.361Z,17.20
2019-02-17T03:12:35.879Z,17.80
2019-02-17T03:15:44.213Z,18.77
2019-02-17T03:18:12.759Z,17.53
2019-02-17T03:20:41.061Z,17.20
2019-02-17T03:23:09.766Z,18.63
2019-02-17T03:25:37.933Z,18.57
2019-02-17T03:28:06.227Z,19.50
2019-02-17T03:30:34.729Z,17.43
2019-02-17T03:33:02.917Z,18.13
2019-02-17T03:35:31.067Z,17.50
2019-02-17T03:37:59.672Z,16.37
2019-02-17T03:40:27.547Z,17.67
2019-02-17T03:42:55.912Z,17.43
2019-02-17T03:45:24.417Z,16.67
2019-02-17T03:47:52.684Z,16.80
2019-02-17T03:50:20.963Z,17.57
2019-02-17T03:52:49.253Z,17.30
2019-02-17T03:55:17.516Z,17.90
2019-02-17T03:57:45.630Z,17.40
2019-02-17T04:00:17.064Z,17.50
2019-02-17T04:02:50.155Z,16.77
2019-02-17T04:05:18.414Z,16.70
2019-02-17T04:07:47.048Z,18.47
2019-02-17T04:10:15.557Z,17.60
2019-02-17T04:12:43.422Z,16.53
2019-02-17T04:15:12.090Z,17.17
2019-02-17T04:17:40.668Z,18.10
2019-02-17T04:20:08.556Z,16.83
2019-02-17T04:22:36.412Z,17.20
2019-02-17T04:25:05.109Z,18.60
2019-02-17T04:27:33.287Z,17.63
2019-02-17T04:30:01.476Z,18.30
2019-02-17T04:32:29.677Z,18.40
2019-02-17T04:34:58.326Z,17.93
2019-02-17T04:37:26.217Z,16.07
2019-02-17T04:39:54.424Z,16.77
2019-02-17T04:42:22.989Z,17.13
2019-02-17T04:44:51.271Z,17.13
2019-02-17T04:47:19.474Z,17.03
2019-02-17T04:49:48.310Z,16.23
2019-02-17T04:52:16.508Z,16.63
2019-02-17T04:54:45.123Z,18.47
2019-02-17T04:57:12.969Z,17.57
2019-02-17T04:59:40.477Z,17.23
2019-02-17T05:02:08.372Z,17.53
2019-02-17T05:04:36.785Z,22.15
2019-02-17T05:07:05.479Z,23.95
2019-02-17T05:09:34.223Z,19.87
2019-02-17T05:12:02.448Z,18.17
2019-02-17T05:14:30.643Z,17.30
2019-02-17T05:16:58.922Z,17.67
2019-02-17T05:19:27.520Z,16.47
2019-02-17T05:21:55.806Z,16.90
2019-02-17T05:24:24.394Z,17.27
2019-02-17T05:26:52.675Z,16.63
2019-02-17T05:29:20.844Z,17.93
2019-02-17T05:31:49.114Z,16.17
2019-02-17T05:34:17.372Z,17.07
2019-02-17T05:36:46.104Z,17.97
2019-02-17T05:39:14.031Z,16.97
2019-02-17T05:41:42.671Z,16.83
2019-02-17T05:44:10.935Z,17.23
2019-02-17T05:46:39.339Z,16.87
2019-02-17T05:49:07.511Z,16.80
2019-02-17T05:51:35.394Z,17.87
2019-02-17T05:54:03.736Z,17.27
2019-02-17T05:56:31.547Z,16.70
2019-02-17T05:58:59.805Z,15.10
2019-02-17T06:01:28.343Z,16.93
2019-02-17T06:03:56.180Z,16.70
2019-02-17T06:06:24.053Z,17.07
2019-02-17T06:08:52.430Z,17.07
2019-02-17T06:11:20.715Z,17.80
2019-02-17T06:13:49.303Z,17.33
2019-02-17T06:16:17.890Z,16.93
2019-02-17T06:18:46.182Z,17.33
2019-02-17T06:21:14.773Z,18.23
2019-02-17T06:23:43.273Z,16.87
2019-02-17T06:26:11.157Z,15.97
2019-02-17T06:28:39.005Z,16.87
2019-02-17T06:31:14.531Z,16.87
2019-02-17T06:33:37.824Z,15.97
2019-02-17T06:36:06.532Z,16.33
2019-02-17T06:38:34.664Z,16.53
2019-02-17T06:41:02.889Z,16.27
2019-02-17T06:43:31.263Z,17.00
2019-02-17T06:45:59.678Z,16.20
2019-02-17T06:48:28.028Z,14.43
2019-02-17T06:50:56.747Z,15.93
2019-02-17T06:53:25.433Z,19.03
2019-02-17T06:56:01.761Z,18.43
2019-02-17T06:58:30.268Z,19.40
2019-02-17T07:01:00.170Z,17.30
2019-02-17T07:03:28.134Z,16.67
2019-02-17T07:06:15.926Z,16.60
2019-02-17T07:08:43.766Z,17.53
2019-02-17T07:11:12.310Z,17.90
2019-02-17T07:13:40.840Z,22.70
2019-02-17T07:16:09.009Z,24.50
2019-02-17T07:18:37.327Z,22.40
2019-02-17T07:21:04.853Z,20.83
2019-02-17T07:23:33.293Z,19.05
2019-02-17T07:26:01.625Z,20.00
2019-02-17T07:28:29.855Z,18.10
2019-02-17T07:30:58.179Z,17.37
2019-02-17T07:33:26.870Z,17.10
2019-02-17T07:35:54.455Z,17.13
2019-02-17T07:38:22.724Z,20.00
2019-02-17T07:40:51.322Z,19.83
2019-02-17T07:43:19.503Z,17.93
2019-02-17T07:45:48.128Z,20.17
2019-02-17T07:48:16.379Z,20.00
2019-02-17T07:50:44.234Z,21.47
2019-02-17T07:53:12.506Z,22.10
2019-02-17T07:55:41.206Z,22.20
2019-02-17T07:58:09.494Z,21.80
2019-02-17T08:00:37.669Z,20.50
2019-02-17T08:03:06.377Z,22.80
2019-02-17T08:05:34.639Z,21.90
2019-02-17T08:08:03.032Z,21.43
2019-02-17T08:10:31.309Z,20.00
2019-02-17T08:13:00.249Z,20.87
2019-02-17T08:15:28.593Z,19.57
2019-02-17T08:17:56.872Z,22.80
2019-02-17T08:20:25.502Z,21.33
2019-02-17T08:22:54.155Z,22.63
2019-02-17T08:25:22.754Z,23.70
2019-02-17T08:27:50.571Z,21.93
2019-02-17T08:30:19.195Z,22.20
2019-02-17T08:32:47.495Z,21.33
2019-02-17T08:35:15.761Z,20.83
2019-02-17T08:37:43.753Z,20.77
2019-02-17T08:40:11.983Z,22.30
2019-02-17T08:42:39.916Z,22.00
2019-02-17T08:45:08.392Z,22.90
2019-02-17T08:47:36.987Z,22.60
2019-02-17T08:50:05.908Z,21.63
2019-02-17T08:52:34.450Z,20.97
2019-02-17T08:55:02.655Z,20.33
2019-02-17T08:57:31.217Z,21.17
2019-02-17T08:59:59.201Z,20.43
2019-02-17T09:02:27.269Z,19.03
2019-02-17T09:04:55.992Z,19.50
2019-02-17T09:07:23.449Z,20.90
2019-02-17T09:09:51.863Z,20.10
2019-02-17T09:12:19.791Z,20.07
2019-02-17T09:14:48.012Z,20.03
2019-02-17T09:17:16.610Z,19.97
2019-02-17T09:19:43.828Z,19.63
2019-02-17T09:22:11.712Z,19.07
2019-02-17T09:24:40.386Z,21.40
2019-02-17T09:27:08.375Z,20.47
2019-02-17T09:29:36.711Z,18.17
2019-02-17T09:32:15.694Z,18.07
2019-02-17T09:34:42.481Z,17.37
2019-02-17T09:37:10.731Z,17.60
2019-02-17T09:39:38.979Z,16.67
2019-02-17T09:42:07.680Z,17.73
2019-02-17T09:44:36.353Z,16.70
2019-02-17T09:47:04.743Z,17.83
2019-02-17T09:49:33.078Z,17.43
2019-02-17T09:52:01.608Z,17.67
2019-02-17T09:54:30.231Z,18.00
2019-02-17T09:56:58.459Z,17.43
2019-02-17T09:59:26.981Z,16.63
2019-02-17T10:01:55.385Z,17.17
2019-02-17T10:04:24.222Z,16.60
2019-02-17T10:06:52.780Z,15.63
2019-02-17T10:09:21.512Z,15.53
2019-02-17T10:11:50.599Z,16.67
2019-02-17T10:14:27.204Z,16.50
2019-02-17T10:16:55.120Z,15.67
2019-02-17T10:19:23.452Z,15.90
2019-02-17T10:21:52.097Z,16.30
2019-02-17T10:24:20.795Z,16.63
2019-02-17T10:26:48.989Z,16.00
2019-02-17T10:29:17.599Z,16.43
2019-02-17T10:31:45.931Z,16.53
2019-02-17T10:34:14.175Z,16.13
2019-02-17T10:36:42.221Z,15.80
2019-02-17T10:39:10.603Z,15.83
2019-02-17T10:41:57.574Z,16.07
2019-02-17T10:44:28.404Z,15.50
2019-02-17T10:46:56.683Z,15.00
2019-02-17T10:49:25.063Z,16.10
2019-02-17T10:51:54.470Z,15.37
2019-02-17T10:54:34.943Z,14.73
2019-02-17T10:57:03.565Z,15.90
2019-02-17T10:59:31.871Z,14.83
2019-02-17T11:02:00.656Z,14.03
2019-02-17T11:04:29.330Z,15.43
2019-02-17T11:07:09.089Z,14.30
2019-02-17T11:09:49.157Z,14.30
2019-02-17T11:12:17.394Z,14.83
2019-02-17T11:14:45.934Z,14.40
2019-02-17T11:17:14.354Z,15.63
2019-02-17T11:19:42.619Z,15.40
2019-02-17T11:22:10.961Z,15.03
2019-02-17T11:24:39.530Z,14.00
2019-02-17T11:27:07.883Z,13.43
2019-02-17T11:29:35.850Z,13.77
2019-02-17T11:32:04.063Z,13.33
2019-02-17T11:34:32.406Z,12.77
2019-02-17T11:37:00.016Z,12.10
2019-02-17T11:39:28.059Z,12.43
2019-02-17T11:41:55.618Z,12.57
2019-02-17T11:44:23.911Z,12.73
2019-02-17T11:46:51.938Z,13.47
2019-02-17T11:49:20.715Z,14.03
2019-02-17T11:51:49.418Z,13.13
2019-02-17T11:54:17.918Z,15.00
2019-02-17T11:56:46.524Z,12.90
2019-02-17T11:59:15.204Z,12.30
2019-02-17T12:01:43.852Z,12.80
2019-02-17T12:04:12.453Z,11.40
2019-02-17T12:06:41.074Z,11.23
2019-02-17T12:12:05.538Z,12.40
2019-02-17T12:14:34.586Z,12.90
2019-02-17T12:17:03.226Z,13.10
2019-02-17T12:19:31.095Z,11.83
2019-02-17T12:22:18.122Z,11.80
2019-02-17T12:24:51.058Z,12.13
2019-02-17T12:27:38.549Z,12.80
2019-02-17T12:30:25.745Z,11.43
2019-02-17T12:32:53.950Z,12.00
2019-02-17T12:35:21.787Z,10.57
2019-02-17T12:37:50.144Z,10.10
2019-02-17T12:40:19.164Z,10.53
2019-02-17T12:42:47.504Z,9.80
2019-02-17T12:45:18.231Z,8.97
2019-02-17T12:47:58.220Z,9.40
2019-02-17T12:50:30.231Z,9.03
2019-02-17T12:52:58.151Z,7.77
2019-02-17T12:55:27.071Z,7.83
2019-02-17T12:57:55.599Z,7.97
2019-02-17T13:00:23.215Z,7.27
2019-02-17T13:02:51.514Z,6.80
2019-02-17T13:05:19.813Z,6.60
2019-02-17T13:07:48.214Z,5.97
2019-02-17T13:10:16.573Z,5.00
2019-02-17T13:12:44.942Z,5.07
2019-02-17T13:15:13.962Z,4.73
2019-02-17T13:17:42.794Z,5.20
2019-02-17T13:20:11.841Z,8.00
2019-02-17T13:22:39.850Z,7.00
2019-02-17T13:25:09.363Z,5.93
2019-02-17T13:27:38.053Z,5.87
2019-02-17T13:30:09.698Z,3.60
2019-02-17T13:32:38.290Z,3.13
2019-02-17T13:35:07.019Z,4.60
2019-02-17T13:37:35.555Z,4.00
2019-02-17T13:40:03.842Z,4.23
2019-02-17T13:42:32.444Z,4.80
2019-02-17T13:45:00.101Z,4.47
2019-02-17T13:47:28.960Z,3.90
2019-02-17T13:49:57.756Z,4.40
2019-02-17T13:52:25.834Z,3.97
2019-02-17T13:54:53.859Z,3.35
2019-02-17T13:57:21.754Z,3.73
2019-02-17T13:59:50.135Z,3.85
2019-02-17T14:02:18.065Z,3.22
2019-02-17T14:04:46.454Z,3.83
2019-02-17T14:07:14.792Z,3.37
2019-02-17T14:09:43.689Z,3.50
2019-02-17T14:12:11.919Z,3.50
2019-02-17T14:14:40.510Z,3.85
2019-02-17T14:17:09.191Z,3.58
2019-02-17T14:19:37.492Z,3.17
2019-02-17T14:22:05.862Z,3.72
2019-02-17T14:24:34.187Z,3.60
2019-02-17T14:27:02.051Z,4.17
2019-02-17T14:29:29.579Z,5.12
2019-02-17T14:31:58.321Z,5.00
2019-02-17T14:34:27.039Z,5.28
2019-02-17T14:36:55.348Z,5.50
2019-02-17T14:42:11.396Z,5.72
2019-02-17T14:44:39.679Z,5.45
2019-02-17T14:47:08.181Z,4.80
2019-02-17T14:49:37.605Z,5.05
2019-02-17T14:52:05.918Z,4.45
2019-02-17T14:54:34.652Z,4.97
2019-02-17T14:57:03.456Z,5.57
2019-02-17T14:59:32.137Z,6.73
2019-02-17T15:02:00.945Z,5.57
2019-02-17T15:04:29.834Z,5.60
2019-02-17T15:06:58.216Z,6.00
2019-02-17T15:09:25.858Z,5.58
2019-02-17T15:11:55.020Z,7.45
2019-02-17T15:14:22.910Z,6.03
2019-02-17T15:16:51.548Z,6.05
2019-02-17T15:19:19.785Z,6.05
2019-02-17T15:21:48.218Z,5.87
2019-02-17T15:24:16.895Z,6.60
2019-02-17T15:26:45.599Z,7.22
2019-02-17T15:29:13.896Z,5.83
2019-02-17T15:31:42.171Z,6.53
2019-02-17T15:34:18.495Z,5.78
2019-02-17T15:36:50.506Z,5.45
2019-02-17T15:39:18.989Z,5.87
2019-02-17T15:41:47.387Z,6.20
2019-02-17T15:44:15.440Z,5.90
2019-02-17T15:46:44.180Z,6.07
2019-02-17T15:49:12.831Z,5.83
2019-02-17T15:51:41.371Z,6.63
2019-02-17T15:54:10.302Z,6.37
2019-02-17T15:56:38.702Z,7.23
2019-02-17T15:59:07.606Z,7.67
2019-02-17T16:01:36.265Z,6.87
2019-02-17T16:04:06.664Z,6.73
2019-02-17T16:06:34.642Z,6.40
2019-02-17T16:11:43.951Z,6.10
2019-02-17T16:14:11.990Z,6.63
2019-02-17T16:16:39.950Z,9.17
2019-02-17T16:19:08.731Z,9.07
2019-02-17T16:21:36.647Z,8.83
2019-02-17T16:24:04.935Z,7.87
2019-02-17T16:26:35.188Z,7.50
2019-02-17T16:29:11.499Z,8.00
2019-02-17T16:31:40.249Z,6.90
2019-02-17T16:34:08.892Z,6.90
2019-02-17T16:36:37.726Z,7.60
2019-02-17T16:42:08.459Z,21.77
2019-02-17T16:44:36.872Z,23.33
2019-02-17T16:47:05.321Z,16.23
2019-02-17T16:49:33.674Z,21.27
2019-02-17T16:52:01.575Z,22.77
2019-02-17T16:54:29.985Z,31.07
2019-02-17T16:56:58.431Z,35.73
2019-02-17T16:59:26.678Z,34.33
2019-02-17T17:01:55.146Z,33.63
2019-02-17T17:04:23.907Z,29.47
2019-02-17T17:06:52.625Z,27.50
2019-02-17T17:09:21.100Z,20.80
2019-02-17T17:11:49.466Z,17.67
2019-02-17T17:14:17.831Z,17.23
2019-02-17T17:16:46.751Z,12.43
2019-02-17T17:19:15.417Z,10.17
2019-02-17T17:21:43.848Z,9.40
2019-02-17T17:24:12.220Z,9.20
2019-02-17T17:26:41.014Z,8.70
2019-02-17T17:29:09.034Z,7.47
2019-02-17T17:31:37.879Z,9.37
2019-02-17T17:34:05.854Z,7.40
2019-02-17T17:36:34.645Z,7.03
2019-02-17T17:42:12.150Z,8.37
2019-02-17T17:44:40.923Z,8.77
2019-02-17T17:47:11.344Z,9.77
2019-02-17T17:49:39.874Z,8.90
2019-02-17T17:52:09.395Z,10.53
2019-02-17T17:54:38.057Z,10.80
2019-02-17T17:57:06.438Z,12.97
2019-02-17T17:59:34.834Z,13.63
2019-02-17T18:02:03.533Z,15.87
2019-02-17T18:04:31.916Z,14.80
2019-02-17T18:06:59.912Z,13.37
2019-02-17T18:09:28.396Z,12.87
2019-02-17T18:11:56.750Z,13.23
2019-02-17T18:14:25.106Z,13.27
2019-02-17T18:16:53.330Z,14.40
2019-02-17T18:19:21.891Z,14.77
2019-02-17T18:21:50.199Z,13.37
2019-02-17T18:24:18.582Z,13.60
2019-02-17T18:26:47.331Z,13.40
2019-02-17T18:29:16.187Z,12.97
2019-02-17T18:31:45.051Z,12.77
2019-02-17T18:34:13.682Z,10.90
2019-02-17T18:36:42.125Z,10.93
2019-02-17T18:41:50.850Z,13.07
2019-02-17T18:44:19.592Z,12.23
2019-02-17T18:46:47.875Z,14.23
2019-02-17T18:49:16.227Z,14.33
2019-02-17T18:51:44.577Z,13.97
2019-02-17T18:54:12.597Z,14.27
2019-02-17T18:56:40.875Z,14.20
2019-02-17T18:59:10.843Z,14.33
2019-02-17T19:01:38.772Z,13.43
2019-02-17T19:04:07.571Z,14.10
2019-02-17T19:06:35.827Z,13.13
2019-02-17T19:09:04.347Z,12.53
2019-02-17T19:11:33.205Z,11.83
2019-02-17T19:14:01.970Z,11.07
2019-02-17T19:16:31.048Z,10.20
2019-02-17T19:19:00.019Z,10.67
2019-02-17T19:21:28.753Z,9.43
2019-02-17T19:23:56.974Z,8.80
2019-02-17T19:26:26.008Z,8.37
2019-02-17T19:28:54.967Z,9.13
2019-02-17T19:31:23.373Z,8.80
2019-02-17T19:33:52.199Z,9.20
2019-02-17T19:36:20.551Z,10.00
2019-02-17T19:38:49.303Z,10.37
2019-02-17T19:41:16.960Z,9.83
2019-02-17T19:43:45.186Z,9.03
2019-02-17T19:46:13.491Z,10.57
2019-02-17T19:48:42.401Z,9.80
2019-02-17T19:51:11.146Z,15.90
2019-02-17T19:53:39.541Z,21.33
2019-02-17T19:56:07.745Z,20.12
2019-02-17T19:58:35.803Z,13.70
2019-02-17T20:01:04.596Z,11.67
2019-02-17T20:03:51.781Z,11.70
2019-02-17T20:06:22.452Z,10.83
2019-02-17T20:08:51.195Z,11.13
2019-02-17T20:11:18.871Z,12.30
2019-02-17T20:13:47.129Z,12.10
2019-02-17T20:16:15.618Z,11.80
2019-02-17T20:18:44.577Z,12.37
2019-02-17T20:21:12.615Z,12.30
2019-02-17T20:23:41.012Z,12.73
2019-02-17T20:26:09.532Z,12.30
2019-02-17T20:28:43.303Z,12.00
2019-02-17T20:31:08.543Z,12.60
2019-02-17T20:33:36.534Z,13.90
2019-02-17T20:36:04.943Z,11.90
2019-02-17T20:38:33.304Z,12.17
2019-02-17T20:41:01.575Z,11.77
2019-02-17T20:43:30.255Z,13.63
2019-02-17T20:45:58.528Z,13.23
2019-02-17T20:48:26.418Z,11.93
2019-02-17T20:50:54.808Z,10.80
2019-02-17T20:53:23.075Z,11.33
2019-02-17T20:55:51.346Z,11.00
2019-02-17T20:58:19.807Z,14.43
2019-02-17T21:00:47.996Z,18.60
2019-02-17T21:03:16.292Z,16.30
2019-02-17T21:08:26.797Z,22.20
2019-02-17T21:11:06.784Z,21.10
2019-02-17T21:13:35.136Z,17.07
2019-02-17T21:18:59.891Z,13.40
2019-02-17T21:21:27.491Z,13.13
2019-02-17T21:23:55.676Z,14.27
2019-02-17T21:26:26.473Z,13.97
2019-02-17T21:29:03.221Z,14.33
2019-02-17T21:31:31.610Z,14.73
2019-02-17T21:33:59.859Z,14.17
2019-02-17T21:36:28.133Z,14.33
2019-02-17T21:38:58.783Z,14.57
2019-02-17T21:41:33.698Z,13.97
2019-02-17T21:44:01.986Z,12.50
2019-02-17T21:46:30.164Z,11.73
2019-02-17T21:48:58.598Z,11.53
2019-02-17T21:51:26.826Z,11.83
2019-02-17T21:53:55.554Z,11.60
2019-02-17T21:56:23.895Z,11.67
2019-02-17T21:58:52.503Z,11.67
2019-02-17T22:01:20.886Z,11.93
2019-02-17T22:03:49.505Z,11.87
2019-02-17T22:06:18.225Z,12.57
2019-02-17T22:08:46.537Z,12.37
2019-02-17T22:11:14.830Z,12.23
2019-02-17T22:13:42.802Z,12.47
2019-02-17T22:16:11.532Z,12.43
2019-02-17T22:18:39.362Z,12.30
2019-02-17T22:21:08.196Z,13.20
2019-02-17T22:23:36.753Z,11.53
2019-02-17T22:26:05.342Z,10.30
2019-02-17T22:28:33.636Z,11.30
2019-02-17T22:31:02.301Z,10.50
2019-02-17T22:33:30.570Z,12.82
2019-02-17T22:35:58.466Z,10.70
2019-02-17T22:38:26.867Z,10.20
2019-02-17T22:40:55.106Z,11.97
2019-02-17T22:43:22.748Z,12.37
2019-02-17T22:45:51.848Z,12.43
2019-02-17T22:48:20.076Z,14.53
2019-02-17T22:50:48.357Z,12.07
2019-02-17T22:53:16.733Z,11.10
2019-02-17T22:55:45.451Z,11.03
2019-02-17T22:58:13.501Z,10.30
2019-02-17T23:01:00.942Z,10.43
2019-02-17T23:03:29.657Z,11.33
2019-02-17T23:05:58.048Z,11.53
2019-02-17T23:08:26.595Z,12.93
2019-02-17T23:10:54.396Z,12.20
2019-02-17T23:13:22.332Z,13.83
2019-02-17T23:15:50.971Z,12.10
2019-02-17T23:18:19.211Z,11.80
2019-02-17T23:20:47.396Z,12.13
2019-02-17T23:23:15.675Z,12.47
2019-02-17T23:25:43.943Z,12.37
2019-02-17T23:28:11.995Z,11.47
2019-02-17T23:30:40.730Z,12.47
2019-02-17T23:33:08.592Z,10.70
2019-02-17T23:35:36.917Z,10.77
2019-02-17T23:38:05.676Z,11.83
2019-02-17T23:40:34.361Z,10.90
2019-02-17T23:43:02.542Z,11.40
2019-02-17T23:45:30.825Z,10.83
2019-02-17T23:47:58.745Z,10.77
2019-02-17T23:50:27.527Z,10.17
2019-02-17T23:52:56.292Z,9.97
2019-02-17T23:55:24.462Z,10.37
2019-02-17T23:57:52.778Z,10.60
